createdAt,value
2018-05-13T00:00:10.743Z,93.40
2018-05-13T00:02:38.281Z,91.93
2018-05-13T00:05:05.867Z,92.14
2018-05-13T00:07:33.439Z,93.08
2018-05-13T00:10:00.987Z,93.35
2018-05-13T00:12:28.515Z,93.46
2018-05-13T00:14:56.047Z,93.03
2018-05-13T00:17:23.621Z,93.33
2018-05-13T00:19:51.174Z,93.32
2018-05-13T00:22:18.706Z,93.68
2018-05-13T00:24:46.271Z,94.06
2018-05-13T00:27:13.836Z,94.24
2018-05-13T00:29:41.376Z,93.13
2018-05-13T00:32:08.919Z,92.50
2018-05-13T00:34:36.467Z,91.91
2018-05-13T00:37:04.010Z,92.10
2018-05-13T00:39:31.537Z,92.51
2018-05-13T00:41:59.079Z,91.93
2018-05-13T00:44:26.661Z,93.75
2018-05-13T00:46:54.195Z,92.93
2018-05-13T00:49:21.756Z,93.75
2018-05-13T00:51:49.298Z,92.35
2018-05-13T00:54:28.488Z,92.85
2018-05-13T00:56:56.028Z,92.66
2018-05-13T00:59:23.553Z,92.29
2018-05-13T01:01:51.110Z,92.03
2018-05-13T01:04:18.645Z,91.89
2018-05-13T01:06:46.187Z,92.24
2018-05-13T01:09:13.718Z,92.83
2018-05-13T01:11:41.259Z,91.74
2018-05-13T01:14:08.815Z,91.63
2018-05-13T01:16:36.391Z,91.91
2018-05-13T01:19:03.930Z,92.55
2018-05-13T01:21:31.499Z,93.25
2018-05-13T01:23:59.039Z,92.79
2018-05-13T01:26:26.597Z,92.91
2018-05-13T01:28:54.128Z,92.08
2018-05-13T01:31:21.679Z,92.04
2018-05-13T01:33:49.211Z,92.18
2018-05-13T01:36:16.787Z,91.84
2018-05-13T01:38:44.332Z,92.16
2018-05-13T01:41:11.886Z,92.19
2018-05-13T01:43:39.422Z,91.60
2018-05-13T01:46:06.987Z,91.72
2018-05-13T01:48:34.564Z,91.79
2018-05-13T01:51:02.095Z,91.79
2018-05-13T01:53:29.666Z,91.54
2018-05-13T01:55:57.206Z,91.67
2018-05-13T01:58:24.770Z,91.70
2018-05-13T02:00:52.346Z,92.00
2018-05-13T02:03:19.885Z,91.69
2018-05-13T02:05:47.459Z,92.14
2018-05-13T02:08:15.008Z,90.91
2018-05-13T02:10:42.600Z,91.82
2018-05-13T02:13:10.125Z,90.83
2018-05-13T02:15:37.660Z,90.62
2018-05-13T02:18:05.192Z,90.27
2018-05-13T02:20:32.754Z,91.32
2018-05-13T02:23:00.336Z,90.79
2018-05-13T02:25:27.851Z,91.59
2018-05-13T02:27:55.403Z,90.33
2018-05-13T02:30:22.956Z,89.81
2018-05-13T02:32:50.452Z,91.70
2018-05-13T02:35:18.013Z,91.65
2018-05-13T02:37:45.583Z,91.92
2018-05-13T02:40:13.091Z,91.77
2018-05-13T02:42:40.591Z,92.17
2018-05-13T02:45:08.114Z,92.45
2018-05-13T02:47:35.619Z,92.30
2018-05-13T02:50:03.185Z,92.88
2018-05-13T02:52:30.696Z,92.15
2018-05-13T02:54:58.246Z,92.48
2018-05-13T02:57:25.795Z,92.20
2018-05-13T02:59:53.315Z,92.35
2018-05-13T03:02:20.833Z,91.38
2018-05-13T03:04:48.344Z,91.19
2018-05-13T03:07:15.853Z,91.01
2018-05-13T03:09:43.377Z,91.03
2018-05-13T03:12:10.915Z,90.61
2018-05-13T03:14:38.422Z,90.50
2018-05-13T03:17:05.936Z,91.48
2018-05-13T03:19:33.457Z,90.81
2018-05-13T03:22:00.969Z,91.22
2018-05-13T03:24:28.490Z,91.67
2018-05-13T03:26:56.001Z,91.30
2018-05-13T03:29:23.511Z,91.78
2018-05-13T03:31:51.016Z,91.23
2018-05-13T03:34:18.543Z,91.24
2018-05-13T03:36:46.102Z,91.04
2018-05-13T03:39:13.621Z,90.35
2018-05-13T03:41:41.125Z,90.85
2018-05-13T03:44:08.644Z,90.85
2018-05-13T03:46:36.201Z,90.19
2018-05-13T03:49:03.703Z,90.20
2018-05-13T03:51:31.233Z,90.89
2018-05-13T03:53:58.741Z,89.34
2018-05-13T03:56:26.253Z,89.39
2018-05-13T03:58:53.782Z,88.12
2018-05-13T04:01:21.283Z,88.48
2018-05-13T04:03:48.791Z,88.99
2018-05-13T04:06:16.314Z,89.20
2018-05-13T04:08:55.515Z,89.16
2018-05-13T04:11:34.807Z,89.44
2018-05-13T04:14:14.238Z,88.30
2018-05-13T04:16:41.751Z,88.24
2018-05-13T04:19:09.333Z,87.19
2018-05-13T04:21:36.866Z,87.43
2018-05-13T04:24:04.442Z,87.21
2018-05-13T04:26:31.992Z,87.65
2018-05-13T04:29:00.376Z,88.27
2018-05-13T04:31:27.892Z,87.95
2018-05-13T04:33:55.395Z,86.58
2018-05-13T04:36:22.928Z,87.74
2018-05-13T04:38:50.439Z,87.91
2018-05-13T04:41:17.987Z,87.83
2018-05-13T04:43:45.497Z,86.96
2018-05-13T04:46:13.642Z,86.62
2018-05-13T04:48:41.170Z,85.79
2018-05-13T04:51:08.693Z,85.00
2018-05-13T04:53:36.222Z,85.58
2018-05-13T04:56:03.747Z,84.71
2018-05-13T04:58:31.311Z,84.65
2018-05-13T05:00:58.858Z,85.31
2018-05-13T05:03:26.372Z,81.69
2018-05-13T05:05:53.943Z,83.43
2018-05-13T05:08:21.464Z,82.07
2018-05-13T05:10:48.988Z,80.59
2018-05-13T05:13:16.595Z,82.17
2018-05-13T05:15:44.480Z,81.44
2018-05-13T05:18:11.993Z,79.21
2018-05-13T05:20:39.540Z,79.92
2018-05-13T05:23:07.055Z,81.05
2018-05-13T05:25:34.636Z,81.18
2018-05-13T05:28:02.177Z,78.17
2018-05-13T05:30:29.748Z,76.72
2018-05-13T05:32:57.330Z,75.65
2018-05-13T05:35:25.983Z,69.16
2018-05-13T05:37:53.489Z,67.95
2018-05-13T05:40:20.994Z,74.35
2018-05-13T05:42:48.515Z,76.03
2018-05-13T05:45:17.182Z,77.84
2018-05-13T05:47:44.731Z,75.71
2018-05-13T05:50:12.256Z,74.06
2018-05-13T05:52:39.783Z,74.08
2018-05-13T05:55:07.302Z,72.18
2018-05-13T05:57:34.841Z,75.54
2018-05-13T06:00:02.419Z,73.27
2018-05-13T06:02:29.930Z,73.94
2018-05-13T06:04:57.442Z,74.52
2018-05-13T06:07:24.974Z,71.56
2018-05-13T06:09:52.510Z,70.72
2018-05-13T06:12:20.105Z,72.85
2018-05-13T06:14:47.582Z,71.62
2018-05-13T06:17:15.132Z,71.53
2018-05-13T06:19:42.690Z,71.52
2018-05-13T06:22:10.180Z,71.52
2018-05-13T06:24:37.748Z,71.15
2018-05-13T06:27:05.284Z,72.23
2018-05-13T06:29:32.795Z,69.17
2018-05-13T06:32:00.403Z,68.38
2018-05-13T06:34:28.004Z,66.73
2018-05-13T06:36:55.521Z,68.63
2018-05-13T06:39:23.036Z,68.41
2018-05-13T06:41:50.568Z,68.83
2018-05-13T06:44:18.109Z,69.58
2018-05-13T06:46:45.659Z,69.91
2018-05-13T06:49:13.170Z,67.52
2018-05-13T06:51:40.682Z,70.01
2018-05-13T06:54:08.471Z,67.94
2018-05-13T06:56:36.045Z,66.89
2018-05-13T06:59:03.988Z,65.64
2018-05-13T07:01:31.523Z,65.54
2018-05-13T07:03:59.062Z,65.54
2018-05-13T07:06:26.576Z,64.60
2018-05-13T07:08:54.127Z,62.30
2018-05-13T07:11:21.649Z,57.88
2018-05-13T07:13:49.324Z,54.75
2018-05-13T07:16:16.845Z,53.28
2018-05-13T07:18:44.361Z,52.48
2018-05-13T07:21:11.891Z,48.18
2018-05-13T07:23:39.410Z,50.33
2018-05-13T07:26:06.922Z,52.00
2018-05-13T07:28:34.438Z,49.34
2018-05-13T07:31:01.972Z,44.42
2018-05-13T07:33:29.501Z,44.99
2018-05-13T07:35:58.011Z,44.84
2018-05-13T07:38:25.528Z,45.63
2018-05-13T07:40:53.110Z,43.64
2018-05-13T07:43:20.651Z,45.28
2018-05-13T07:45:48.240Z,47.12
2018-05-13T07:48:15.806Z,44.94
2018-05-13T07:50:43.451Z,42.70
2018-05-13T07:53:11.830Z,41.48
2018-05-13T07:55:40.467Z,41.57
2018-05-13T07:58:07.995Z,42.16
2018-05-13T08:00:35.506Z,40.34
2018-05-13T08:03:03.089Z,40.01
2018-05-13T08:05:31.769Z,42.69
2018-05-13T08:07:59.347Z,44.08
2018-05-13T08:10:27.205Z,44.90
2018-05-13T08:12:55.027Z,42.35
2018-05-13T08:15:22.563Z,40.12
2018-05-13T08:17:50.137Z,42.41
2018-05-13T08:20:17.817Z,43.03
2018-05-13T08:22:45.400Z,41.74
2018-05-13T08:25:12.924Z,41.88
2018-05-13T08:27:40.467Z,41.70
2018-05-13T08:30:09.183Z,41.44
2018-05-13T08:32:36.833Z,41.19
2018-05-13T08:35:04.382Z,41.86
2018-05-13T08:37:31.895Z,38.49
2018-05-13T08:39:59.451Z,39.73
2018-05-13T08:42:27.008Z,36.29
2018-05-13T08:44:54.901Z,34.86
2018-05-13T08:47:22.505Z,37.80
2018-05-13T08:49:50.417Z,37.79
2018-05-13T08:52:18.203Z,39.08
2018-05-13T08:54:46.534Z,38.31
2018-05-13T08:57:14.843Z,38.46
2018-05-13T08:59:42.450Z,37.62
2018-05-13T09:02:10.055Z,40.00
2018-05-13T09:04:37.626Z,39.82
2018-05-13T09:07:05.209Z,40.65
2018-05-13T09:09:33.864Z,41.86
2018-05-13T09:12:02.653Z,39.15
2018-05-13T09:14:30.283Z,39.01
2018-05-13T09:16:57.715Z,40.66
2018-05-13T09:19:25.269Z,44.08
2018-05-13T09:21:52.816Z,46.36
2018-05-13T09:24:20.399Z,48.90
2018-05-13T09:26:47.951Z,44.92
2018-05-13T09:29:16.449Z,47.06
2018-05-13T09:31:44.061Z,47.47
2018-05-13T09:34:11.682Z,44.16
2018-05-13T09:36:39.205Z,45.67
2018-05-13T09:39:06.817Z,45.22
2018-05-13T09:41:34.407Z,40.92
2018-05-13T09:44:01.964Z,38.30
2018-05-13T09:46:29.716Z,36.88
2018-05-13T09:48:57.248Z,36.13
2018-05-13T09:51:24.844Z,35.48
2018-05-13T09:53:52.409Z,35.34
2018-05-13T09:56:19.947Z,35.21
2018-05-13T09:58:47.459Z,34.91
2018-05-13T10:01:15.032Z,35.41
2018-05-13T10:03:42.564Z,34.66
2018-05-13T10:06:10.127Z,35.97
2018-05-13T10:08:37.910Z,37.62
2018-05-13T10:11:06.056Z,36.54
2018-05-13T10:13:33.658Z,34.58
2018-05-13T10:16:01.427Z,36.88
2018-05-13T10:18:29.043Z,41.41
2018-05-13T10:20:56.815Z,39.37
2018-05-13T10:23:25.251Z,36.71
2018-05-13T10:25:52.879Z,35.06
2018-05-13T10:28:21.469Z,36.02
2018-05-13T10:30:49.532Z,34.67
2018-05-13T10:33:17.842Z,35.78
2018-05-13T10:35:49.059Z,34.40
2018-05-13T10:38:16.866Z,34.00
2018-05-13T10:40:44.417Z,31.65
2018-05-13T10:43:12.145Z,31.38
2018-05-13T10:45:41.123Z,31.22
2018-05-13T10:48:08.715Z,30.82
2018-05-13T10:50:36.320Z,29.48
2018-05-13T10:53:04.217Z,29.74
2018-05-13T10:55:31.736Z,29.30
2018-05-13T10:58:00.244Z,28.24
2018-05-13T11:00:27.868Z,28.37
2018-05-13T11:02:55.480Z,28.64
2018-05-13T11:05:23.299Z,26.83
2018-05-13T11:07:51.578Z,31.15
2018-05-13T11:10:19.176Z,32.02
2018-05-13T11:12:46.961Z,29.03
2018-05-13T11:15:14.900Z,29.74
2018-05-13T11:17:42.525Z,31.29
2018-05-13T11:20:10.083Z,36.97
2018-05-13T11:22:37.590Z,37.43
2018-05-13T11:25:05.173Z,44.01
2018-05-13T11:27:32.667Z,42.93
2018-05-13T11:30:00.216Z,45.66
2018-05-13T11:32:27.718Z,46.78
2018-05-13T11:34:55.265Z,45.75
2018-05-13T11:37:23.055Z,45.86
2018-05-13T11:39:50.658Z,45.85
2018-05-13T11:42:18.095Z,44.48
2018-05-13T11:44:45.597Z,45.99
2018-05-13T11:47:13.140Z,46.93
2018-05-13T11:49:40.647Z,48.06
2018-05-13T11:52:08.197Z,52.10
2018-05-13T11:54:35.704Z,55.63
2018-05-13T11:57:03.215Z,57.91
2018-05-13T11:59:30.727Z,60.59
2018-05-13T12:01:58.277Z,66.56
2018-05-13T12:04:25.784Z,70.81
2018-05-13T12:06:53.647Z,67.02
2018-05-13T12:09:21.196Z,70.01
2018-05-13T12:11:48.699Z,71.08
2018-05-13T12:14:16.198Z,71.74
2018-05-13T12:16:43.906Z,75.03
2018-05-13T12:19:11.420Z,75.82
2018-05-13T12:21:39.480Z,75.11
2018-05-13T12:24:06.983Z,71.20
2018-05-13T12:26:34.487Z,69.70
2018-05-13T12:29:02.051Z,66.99
2018-05-13T12:31:29.547Z,63.88
2018-05-13T12:33:57.091Z,60.12
2018-05-13T12:36:24.647Z,62.42
2018-05-13T12:38:52.158Z,62.15
2018-05-13T12:41:19.689Z,60.90
2018-05-13T12:43:47.236Z,63.04
2018-05-13T12:46:14.744Z,63.90
2018-05-13T12:48:42.259Z,66.45
2018-05-13T12:51:09.777Z,58.98
2018-05-13T12:53:37.303Z,55.86
2018-05-13T12:56:04.813Z,55.58
2018-05-13T12:58:32.432Z,53.94
2018-05-13T13:00:59.886Z,50.91
2018-05-13T13:03:27.395Z,52.74
2018-05-13T13:05:56.033Z,52.32
2018-05-13T13:08:25.414Z,48.54
2018-05-13T13:10:53.287Z,56.25
2018-05-13T13:13:20.915Z,56.69
2018-05-13T13:15:48.429Z,56.92
2018-05-13T13:18:15.950Z,53.47
2018-05-13T13:20:43.585Z,48.99
2018-05-13T13:23:11.315Z,47.52
2018-05-13T13:25:39.159Z,45.77
2018-05-13T13:28:06.678Z,45.91
2018-05-13T13:30:34.254Z,42.14
2018-05-13T13:33:01.814Z,47.66
2018-05-13T13:35:29.340Z,52.31
2018-05-13T13:37:56.851Z,52.07
2018-05-13T13:40:24.449Z,48.94
2018-05-13T13:42:51.990Z,45.34
2018-05-13T13:45:19.527Z,50.68
2018-05-13T13:47:47.035Z,49.52
2018-05-13T13:50:14.609Z,50.62
2018-05-13T13:52:42.173Z,47.55
2018-05-13T13:55:10.038Z,47.31
2018-05-13T13:57:37.795Z,48.97
2018-05-13T14:00:05.344Z,48.27
2018-05-13T14:02:32.851Z,48.79
2018-05-13T14:05:00.384Z,47.33
2018-05-13T14:07:27.981Z,46.61
2018-05-13T14:09:55.528Z,46.52
2018-05-13T14:12:23.043Z,46.23
2018-05-13T14:14:50.588Z,45.17
2018-05-13T14:17:18.130Z,44.93
2018-05-13T14:19:46.306Z,45.25
2018-05-13T14:22:13.844Z,47.05
2018-05-13T14:24:41.390Z,47.37
2018-05-13T14:27:08.926Z,47.47
2018-05-13T14:29:36.439Z,49.61
2018-05-13T14:32:03.943Z,51.77
2018-05-13T14:34:31.444Z,54.02
2018-05-13T14:36:58.967Z,56.04
2018-05-13T14:39:26.514Z,57.80
2018-05-13T14:41:54.065Z,57.48
2018-05-13T14:44:21.584Z,54.21
2018-05-13T14:46:49.088Z,54.09
2018-05-13T14:49:16.600Z,53.74
2018-05-13T14:51:44.128Z,54.31
2018-05-13T14:54:11.629Z,53.37
2018-05-13T14:56:39.192Z,53.96
2018-05-13T14:59:06.747Z,54.14
2018-05-13T15:01:34.404Z,54.31
2018-05-13T15:04:01.948Z,53.88
2018-05-13T15:06:29.501Z,54.30
2018-05-13T15:08:57.271Z,55.27
2018-05-13T15:11:24.783Z,55.29
2018-05-13T15:13:52.286Z,55.16
2018-05-13T15:16:19.822Z,55.44
2018-05-13T15:18:47.368Z,55.51
2018-05-13T15:21:15.866Z,56.04
2018-05-13T15:23:43.641Z,56.99
2018-05-13T15:26:11.384Z,56.76
2018-05-13T15:28:38.915Z,56.11
2018-05-13T15:31:06.476Z,56.09
2018-05-13T15:33:34.210Z,55.55
2018-05-13T15:36:01.786Z,57.29
2018-05-13T15:38:29.310Z,59.59
2018-05-13T15:40:59.864Z,60.84
2018-05-13T15:43:27.429Z,61.22
2018-05-13T15:45:54.899Z,60.71
2018-05-13T15:48:22.437Z,61.13
2018-05-13T15:50:50.027Z,60.60
2018-05-13T15:53:17.611Z,61.03
2018-05-13T15:55:45.167Z,60.13
2018-05-13T15:58:12.724Z,60.24
2018-05-13T16:00:40.975Z,59.95
2018-05-13T16:03:08.476Z,59.89
2018-05-13T16:05:36.693Z,59.80
2018-05-13T16:08:05.039Z,59.90
2018-05-13T16:10:32.534Z,60.27
2018-05-13T16:13:00.045Z,59.28
2018-05-13T16:15:27.583Z,59.68
2018-05-13T16:17:55.135Z,59.57
2018-05-13T16:20:22.649Z,59.48
2018-05-13T16:22:50.163Z,59.45
2018-05-13T16:25:18.607Z,59.70
2018-05-13T16:27:46.195Z,59.74
2018-05-13T16:30:13.789Z,59.76
2018-05-13T16:32:41.361Z,60.60
2018-05-13T16:35:08.911Z,60.86
2018-05-13T16:37:36.419Z,61.11
2018-05-13T16:40:03.985Z,61.47
2018-05-13T16:42:31.541Z,61.87
2018-05-13T16:44:59.119Z,62.56
2018-05-13T16:47:26.698Z,63.00
2018-05-13T16:49:54.230Z,63.01
2018-05-13T16:52:21.936Z,63.40
2018-05-13T16:54:49.500Z,63.95
2018-05-13T16:57:17.052Z,63.33
2018-05-13T16:59:44.589Z,63.79
2018-05-13T17:02:12.100Z,64.58
2018-05-13T17:04:39.609Z,65.34
2018-05-13T17:07:07.108Z,66.39
2018-05-13T17:09:34.672Z,68.24
2018-05-13T17:12:02.200Z,68.47
2018-05-13T17:14:29.728Z,68.67
2018-05-13T17:16:57.237Z,68.51
2018-05-13T17:19:24.744Z,69.53
2018-05-13T17:21:52.289Z,69.85
2018-05-13T17:24:19.808Z,70.11
2018-05-13T17:26:47.308Z,71.35
2018-05-13T17:29:14.842Z,71.56
2018-05-13T17:31:42.356Z,71.43
2018-05-13T17:34:09.905Z,71.03
2018-05-13T17:36:37.385Z,70.66
2018-05-13T17:39:04.942Z,70.36
2018-05-13T17:41:32.459Z,70.37
2018-05-13T17:44:00.012Z,69.60
2018-05-13T17:46:27.596Z,69.05
2018-05-13T17:48:55.177Z,68.66
2018-05-13T17:51:22.732Z,69.38
2018-05-13T17:53:50.243Z,69.37
2018-05-13T17:56:17.805Z,69.23
2018-05-13T17:58:45.392Z,69.18
2018-05-13T18:01:12.956Z,69.22
2018-05-13T18:03:40.552Z,69.06
2018-05-13T18:06:08.275Z,69.31
2018-05-13T18:08:35.828Z,70.06
2018-05-13T18:11:04.298Z,70.65
2018-05-13T18:13:31.855Z,68.75
2018-05-13T18:15:59.823Z,67.28
2018-05-13T18:18:27.324Z,65.45
2018-05-13T18:20:54.849Z,64.98
2018-05-13T18:23:22.484Z,65.00
2018-05-13T18:25:49.935Z,64.71
2018-05-13T18:28:17.487Z,66.16
2018-05-13T18:30:45.073Z,67.81
2018-05-13T18:33:12.654Z,69.20
2018-05-13T18:35:41.120Z,69.76
2018-05-13T18:38:08.666Z,69.65
2018-05-13T18:40:36.192Z,69.24
2018-05-13T18:43:03.700Z,69.59
2018-05-13T18:45:31.364Z,68.58
2018-05-13T18:47:58.871Z,68.47
2018-05-13T18:50:26.420Z,68.23
2018-05-13T18:52:53.961Z,66.58
2018-05-13T18:55:21.499Z,66.65
2018-05-13T18:57:49.031Z,66.79
2018-05-13T19:00:16.526Z,66.80
2018-05-13T19:02:44.043Z,66.56
2018-05-13T19:05:12.354Z,65.45
2018-05-13T19:07:39.851Z,65.27
2018-05-13T19:10:07.379Z,66.01
2018-05-13T19:12:34.940Z,66.82
2018-05-13T19:15:02.732Z,66.30
2018-05-13T19:17:30.240Z,67.29
2018-05-13T19:19:57.785Z,68.01
2018-05-13T19:22:25.298Z,68.94
2018-05-13T19:24:53.378Z,69.29
2018-05-13T19:27:21.174Z,69.34
2018-05-13T19:29:48.723Z,70.15
2018-05-13T19:32:16.223Z,69.46
2018-05-13T19:34:43.751Z,69.93
2018-05-13T19:37:11.327Z,70.10
2018-05-13T19:39:38.882Z,70.90
2018-05-13T19:42:06.417Z,71.53
2018-05-13T19:44:33.927Z,71.91
2018-05-13T19:47:01.433Z,72.68
2018-05-13T19:49:28.946Z,73.07
2018-05-13T19:51:56.539Z,73.56
2018-05-13T19:54:24.071Z,73.45
2018-05-13T19:56:51.615Z,73.57
2018-05-13T19:59:19.123Z,73.71
2018-05-13T20:01:46.627Z,73.82
2018-05-13T20:06:47.831Z,73.47
2018-05-13T20:09:15.443Z,73.12
2018-05-13T20:11:42.900Z,72.72
2018-05-13T20:14:10.399Z,72.33
2018-05-13T20:16:37.900Z,73.55
2018-05-13T20:19:05.405Z,72.66
2018-05-13T20:21:32.994Z,72.18
2018-05-13T20:24:00.499Z,71.82
2018-05-13T20:26:28.040Z,71.42
2018-05-13T20:28:55.545Z,71.40
2018-05-13T20:31:23.083Z,71.47
2018-05-13T20:33:50.577Z,71.36
2018-05-13T20:36:18.076Z,71.40
2018-05-13T20:38:45.630Z,71.33
2018-05-13T20:41:13.189Z,71.62
2018-05-13T20:43:40.702Z,72.43
2018-05-13T20:46:08.216Z,72.77
2018-05-13T20:48:35.711Z,73.18
2018-05-13T20:51:03.277Z,73.14
2018-05-13T20:53:30.805Z,73.17
2018-05-13T20:55:58.340Z,72.81
2018-05-13T20:58:25.886Z,73.01
2018-05-13T21:00:53.429Z,73.33
2018-05-13T21:03:20.953Z,73.62
2018-05-13T21:05:48.468Z,73.74
2018-05-13T21:08:16.505Z,73.85
2018-05-13T21:10:44.118Z,73.60
2018-05-13T21:13:11.684Z,73.68
2018-05-13T21:15:39.227Z,73.80
2018-05-13T21:18:06.778Z,73.40
2018-05-13T21:20:34.317Z,73.19
2018-05-13T21:23:01.848Z,73.31
2018-05-13T21:25:29.386Z,73.33
2018-05-13T21:27:56.945Z,73.21
2018-05-13T21:30:24.502Z,72.83
2018-05-13T21:32:52.311Z,73.66
2018-05-13T21:35:19.847Z,73.81
2018-05-13T21:37:47.375Z,74.26
2018-05-13T21:40:14.903Z,74.95
2018-05-13T21:42:42.437Z,74.64
2018-05-13T21:45:09.963Z,74.87
2018-05-13T21:47:37.480Z,74.74
2018-05-13T21:50:05.026Z,74.55
2018-05-13T21:52:32.573Z,75.03
2018-05-13T21:55:00.109Z,75.75
2018-05-13T21:57:27.645Z,76.07
2018-05-13T21:59:55.193Z,76.29
2018-05-13T22:02:22.716Z,76.17
2018-05-13T22:04:59.235Z,76.33
2018-05-13T22:07:26.754Z,76.40
2018-05-13T22:09:54.274Z,76.75
2018-05-13T22:12:21.803Z,77.43
2018-05-13T22:14:49.349Z,78.22
2018-05-13T22:17:16.937Z,78.13
2018-05-13T22:19:44.435Z,78.18
2018-05-13T22:22:11.974Z,78.42
2018-05-13T22:24:39.505Z,78.44
2018-05-13T22:27:07.027Z,78.00
2018-05-13T22:29:34.573Z,77.88
2018-05-13T22:32:02.092Z,78.30
2018-05-13T22:34:29.626Z,77.66
2018-05-13T22:36:57.150Z,77.30
2018-05-13T22:39:24.672Z,77.31
2018-05-13T22:41:52.198Z,76.58
2018-05-13T22:44:19.712Z,76.94
2018-05-13T22:46:47.230Z,76.37
2018-05-13T22:49:14.755Z,76.67
2018-05-13T22:51:42.914Z,76.66
2018-05-13T22:54:10.479Z,76.35
2018-05-13T22:56:38.005Z,75.83
2018-05-13T22:59:05.582Z,75.73
2018-05-13T23:01:33.110Z,75.76
2018-05-13T23:04:00.639Z,75.77
2018-05-13T23:06:30.953Z,75.97
2018-05-13T23:08:58.485Z,75.97
2018-05-13T23:11:26.012Z,76.48
2018-05-13T23:13:53.536Z,76.78
2018-05-13T23:16:21.067Z,76.57
2018-05-13T23:18:48.591Z,76.54
2018-05-13T23:21:16.151Z,76.39
2018-05-13T23:23:43.691Z,76.39
2018-05-13T23:26:11.225Z,76.18
2018-05-13T23:28:38.853Z,76.01
2018-05-13T23:31:06.315Z,76.10
2018-05-13T23:33:33.837Z,75.86
2018-05-13T23:36:01.386Z,75.67
2018-05-13T23:38:28.917Z,75.93
2018-05-13T23:40:56.445Z,75.65
2018-05-13T23:43:24.028Z,75.54
2018-05-13T23:45:51.539Z,75.15
2018-05-13T23:48:19.067Z,74.66
2018-05-13T23:50:46.599Z,74.89
2018-05-13T23:53:14.135Z,74.49
2018-05-13T23:55:41.662Z,74.36
2018-05-13T23:58:09.196Z,74.39
